Time;durP1;ratioP1;P1;durP2;ratioP2;P2;SDS_P1;SDS_P2;PMS_P1;PMS_P2;Temp;Humidity;BMP_temperature;BMP_pressure;BME280_temperature;BME280_humidity;BME280_pressure;Samples;Min_cycle;Max_cycle;Signal;HPM_P1;HPM_P2
2023/01/30 00:01:46;;;;;;;45.25;16.65;;;-2.50;99.90;;;;;;5051735;28;20036;-63
2023/01/30 00:04:12;;;;;;;48.65;16.90;;;-2.50;99.90;;;;;;5049609;28;20819;-62
2023/01/30 00:06:41;;;;;;;42.33;16.95;;;-2.50;99.90;;;;;;5048253;28;20033;-62
2023/01/30 00:09:09;;;;;;;48.67;18.17;;;-2.50;99.90;;;;;;5050471;28;20108;-63
2023/01/30 00:11:35;;;;;;;44.47;16.25;;;-2.60;99.90;;;;;;5038509;28;20116;-63
2023/01/30 00:14:00;;;;;;;45.17;16.27;;;-2.60;99.90;;;;;;5050421;28;20112;-62
2023/01/30 00:16:26;;;;;;;49.78;18.05;;;-2.70;99.90;;;;;;5064262;28;20124;-63
2023/01/30 00:18:52;;;;;;;42.17;16.88;;;-2.70;99.90;;;;;;5058254;28;20033;-62
2023/01/30 00:21:17;;;;;;;43.08;16.45;;;-2.80;99.90;;;;;;5047432;28;20033;-62
2023/01/30 00:23:43;;;;;;;45.20;16.98;;;-2.70;99.90;;;;;;5049395;28;20670;-61
2023/01/30 00:26:10;;;;;;;46.03;16.48;;;-2.80;99.90;;;;;;5058308;28;20051;-63
2023/01/30 00:28:36;;;;;;;42.00;15.80;;;-2.80;99.90;;;;;;5069366;28;20052;-63
2023/01/30 00:31:01;;;;;;;42.63;16.42;;;-2.90;99.90;;;;;;5054221;28;20041;-62
2023/01/30 00:33:27;;;;;;;45.00;16.52;;;-2.90;99.90;;;;;;5047140;28;20040;-63
2023/01/30 00:35:55;;;;;;;44.60;16.52;;;-2.90;99.90;;;;;;5038680;28;20037;-63
2023/01/30 00:38:24;;;;;;;43.47;16.73;;;-2.90;99.90;;;;;;5030130;28;20026;-63
2023/01/30 00:40:50;;;;;;;50.47;16.42;;;-3.00;99.90;;;;;;5053499;28;20495;-62
2023/01/30 00:48:52;;;;;;;44.67;15.73;;;-3.00;99.90;;;;;;5051283;28;20150;-62
2023/01/30 00:51:18;;;;;;;46.35;15.55;;;-3.10;99.90;;;;;;5043438;28;20120;-63
2023/01/30 00:53:43;;;;;;;45.85;15.35;;;-3.10;99.90;;;;;;5030432;28;20036;-60
2023/01/30 00:56:09;;;;;;;44.90;16.88;;;-3.00;99.90;;;;;;5047375;28;20109;-63
2023/01/30 00:58:35;;;;;;;44.40;16.60;;;-3.10;99.90;;;;;;5048406;28;20047;-63
2023/01/30 01:01:00;;;;;;;41.78;15.60;;;-3.00;99.90;;;;;;5047457;28;20044;-62
2023/01/30 01:03:26;;;;;;;46.47;15.82;;;-2.90;99.90;;;;;;5047945;28;20041;-63
2023/01/30 01:05:51;;;;;;;48.33;16.17;;;-2.90;99.90;;;;;;5035788;28;20029;-62
2023/01/30 01:08:17;;;;;;;47.28;15.88;;;-2.80;99.90;;;;;;5029339;28;20041;-63
2023/01/30 01:10:43;;;;;;;43.58;15.98;;;-2.80;99.90;;;;;;5028582;28;20029;-63
2023/01/30 01:13:09;;;;;;;43.88;16.23;;;-2.80;99.90;;;;;;5046351;28;20037;-62
2023/01/30 01:15:35;;;;;;;42.05;14.82;;;-2.70;99.90;;;;;;5068232;28;20058;-62
2023/01/30 01:18:00;;;;;;;43.38;15.65;;;-2.70;99.90;;;;;;5068098;28;20040;-62
2023/01/30 01:20:26;;;;;;;38.65;14.65;;;-2.70;99.90;;;;;;5054707;28;20479;-63
2023/01/30 01:22:53;;;;;;;41.08;15.32;;;-2.70;99.90;;;;;;5062290;28;20120;-61
2023/01/30 01:25:19;;;;;;;44.85;15.93;;;-2.70;99.90;;;;;;5069130;28;20454;-62
2023/01/30 01:27:46;;;;;;;42.33;15.57;;;-2.80;99.90;;;;;;5051289;28;20099;-61
2023/01/30 01:30:12;;;;;;;41.70;15.32;;;-2.80;99.90;;;;;;5046599;28;20041;-62
2023/01/30 01:32:38;;;;;;;48.05;15.85;;;-2.90;99.90;;;;;;5066811;28;20040;-62
2023/01/30 01:35:04;;;;;;;39.83;15.00;;;-2.90;99.90;;;;;;5055598;28;20098;-62
2023/01/30 01:37:30;;;;;;;43.35;15.65;;;-2.90;99.90;;;;;;5047498;28;20645;-63
2023/01/30 01:42:40;;;;;;;46.67;16.80;;;-3.00;99.90;;;;;;5066930;28;20034;-62
2023/01/30 01:45:11;;;;;;;42.45;16.05;;;-3.10;99.90;;;;;;5056196;28;20440;-63
2023/01/30 01:47:46;;;;;;;42.53;15.20;;;-3.00;99.90;;;;;;5055508;28;20094;-64
2023/01/30 01:50:17;;;;;;;44.58;15.60;;;-3.10;99.90;;;;;;5052253;28;20041;-63
2023/01/30 01:52:43;;;;;;;40.65;14.77;;;-3.00;99.90;;;;;;5053730;28;20055;-61
2023/01/30 01:55:10;;;;;;;43.78;15.55;;;-3.00;99.90;;;;;;5048083;28;20027;-62
2023/01/30 01:57:45;;;;;;;46.55;15.13;;;-2.90;99.90;;;;;;5039806;28;20026;-62
2023/01/30 02:00:14;;;;;;;41.17;15.80;;;-2.90;99.90;;;;;;5027822;28;20040;-63
2023/01/30 02:02:53;;;;;;;44.30;14.95;;;-3.00;99.90;;;;;;5050682;28;20029;-62
2023/01/30 02:05:19;;;;;;;43.67;15.23;;;-2.70;99.90;;;;;;5045740;28;20132;-62
2023/01/30 02:07:54;;;;;;;42.72;14.63;;;-2.60;99.90;;;;;;5053274;28;20763;-63
2023/01/30 02:10:24;;;;;;;42.47;15.43;;;-2.50;99.90;;;;;;5032292;28;20533;-62
2023/01/30 02:12:50;;;;;;;39.60;14.15;;;-2.40;99.90;;;;;;5045737;28;20043;-62
2023/01/30 02:15:17;;;;;;;41.70;15.10;;;-2.30;99.90;;;;;;5048368;28;20119;-60
2023/01/30 02:17:43;;;;;;;46.03;15.95;;;-2.10;99.90;;;;;;5046499;28;20037;-62
2023/01/30 02:20:22;;;;;;;45.15;14.85;;;-2.10;99.90;;;;;;5046289;28;20029;-62
2023/01/30 02:23:15;;;;;;;45.83;14.85;;;-2.10;99.90;;;;;;5046550;28;20500;-62
2023/01/30 02:25:59;;;;;;;42.80;14.88;;;-2.10;99.90;;;;;;5047976;28;20470;-62
2023/01/30 02:28:39;;;;;;;44.42;14.75;;;-2.20;99.90;;;;;;5059916;28;20085;-63
2023/01/30 02:31:17;;;;;;;46.70;16.73;;;-2.20;99.90;;;;;;5068412;28;20090;-60
2023/01/30 02:34:14;;;;;;;45.88;14.77;;;-2.20;99.90;;;;;;5055829;28;20357;-62
2023/01/30 02:36:53;;;;;;;43.75;15.07;;;-2.20;99.90;;;;;;5046778;28;20043;-62
2023/01/30 02:39:48;;;;;;;48.92;15.73;;;-2.20;99.90;;;;;;5046103;28;20083;-62
2023/01/30 02:42:23;;;;;;;43.50;15.75;;;-2.20;99.90;;;;;;5063335;28;20071;-60
2023/01/30 02:44:59;;;;;;;48.65;15.95;;;-2.10;99.90;;;;;;5036156;28;20033;-61
2023/01/30 02:47:51;;;;;;;47.67;16.52;;;-2.20;99.90;;;;;;5048084;28;20032;-62
2023/01/30 02:50:25;;;;;;;44.83;14.60;;;-2.20;99.90;;;;;;5030859;28;20057;-62
2023/01/30 02:52:52;;;;;;;45.40;15.20;;;-2.20;99.90;;;;;;5036136;28;20104;-62
2023/01/30 02:55:21;;;;;;;49.60;16.65;;;-2.20;99.90;;;;;;5053606;28;20037;-62
2023/01/30 02:57:46;;;;;;;46.25;15.48;;;-2.20;99.90;;;;;;5050825;28;20025;-62
2023/01/30 03:00:15;;;;;;;47.45;16.15;;;-2.20;99.90;;;;;;5049923;28;20397;-62
2023/01/30 03:03:08;;;;;;;43.75;15.23;;;-2.20;99.90;;;;;;5050753;28;20060;-62
2023/01/30 03:06:05;;;;;;;51.55;16.83;;;-2.30;99.90;;;;;;5061410;28;20025;-63
2023/01/30 03:08:43;;;;;;;48.13;15.48;;;-2.30;99.90;;;;;;5052075;28;20397;-63
2023/01/30 03:11:10;;;;;;;47.22;16.17;;;-2.30;99.90;;;;;;5048371;28;20030;-62
2023/01/30 03:13:57;;;;;;;50.58;16.08;;;-2.30;99.90;;;;;;5050663;28;20037;-62
2023/01/30 03:16:26;;;;;;;47.33;16.50;;;-2.30;99.90;;;;;;5066449;28;20370;-61
2023/01/30 03:18:51;;;;;;;46.50;16.13;;;-2.20;99.90;;;;;;5030555;28;20096;-61
2023/01/30 03:21:18;;;;;;;45.70;14.23;;;-2.30;99.90;;;;;;5031098;28;20072;-62
2023/01/30 03:23:45;;;;;;;43.88;16.45;;;-2.20;99.90;;;;;;5049373;28;20029;-62
2023/01/30 03:26:17;;;;;;;50.40;17.77;;;-2.20;99.90;;;;;;5050450;28;20028;-61
2023/01/30 03:28:43;;;;;;;51.55;16.60;;;-2.20;99.90;;;;;;5045471;28;20081;-61
2023/01/30 03:31:09;;;;;;;47.67;16.88;;;-2.20;99.90;;;;;;5049886;28;20120;-62
2023/01/30 03:33:35;;;;;;;46.60;17.75;;;-2.10;99.90;;;;;;5051055;28;20168;-62
2023/01/30 03:36:00;;;;;;;56.10;18.00;;;-2.20;99.90;;;;;;5069095;28;20036;-61
2023/01/30 03:38:26;;;;;;;53.25;17.08;;;-2.20;99.90;;;;;;5064002;28;20033;-61
2023/01/30 03:40:52;;;;;;;43.10;15.82;;;-2.20;99.90;;;;;;5070519;28;20029;-61
2023/01/30 03:43:18;;;;;;;48.10;16.20;;;-2.20;99.90;;;;;;5053379;28;20037;-62
2023/01/30 03:45:43;;;;;;;48.25;14.52;;;-2.20;99.90;;;;;;5047744;28;20524;-63
2023/01/30 03:48:09;;;;;;;50.65;17.38;;;-2.20;99.90;;;;;;5050375;28;20055;-63
2023/01/30 03:50:34;;;;;;;45.00;16.02;;;-2.20;99.90;;;;;;5053526;28;20020;-63
2023/01/30 03:53:00;;;;;;;44.13;16.08;;;-2.20;99.90;;;;;;5049937;28;20083;-63
2023/01/30 03:55:26;;;;;;;52.22;16.52;;;-2.20;99.90;;;;;;5047665;28;20485;-62
2023/01/30 03:57:57;;;;;;;53.58;16.70;;;-2.20;99.90;;;;;;5046840;28;20116;-63
2023/01/30 04:00:23;;;;;;;47.67;16.13;;;-2.10;99.90;;;;;;5030757;28;20067;-63
2023/01/30 04:02:49;;;;;;;47.00;16.35;;;-2.10;99.90;;;;;;5045680;28;20033;-62
2023/01/30 04:05:15;;;;;;;41.60;14.35;;;-2.10;99.90;;;;;;5070569;28;20033;-63
2023/01/30 04:07:40;;;;;;;45.40;15.55;;;-2.00;99.90;;;;;;5048520;28;20074;-63
2023/01/30 04:10:06;;;;;;;47.65;15.85;;;-1.90;99.90;;;;;;5062872;28;20060;-63
2023/01/30 04:12:32;;;;;;;50.75;17.08;;;-1.90;99.90;;;;;;5070761;28;20036;-62
2023/01/30 04:14:58;;;;;;;40.28;14.80;;;-1.90;99.90;;;;;;5048559;28;20025;-63
2023/01/30 04:17:23;;;;;;;45.40;15.68;;;-1.90;99.90;;;;;;5053983;28;20025;-62
2023/01/30 04:19:49;;;;;;;47.13;16.25;;;-1.90;99.90;;;;;;5040126;28;20477;-62
2023/01/30 04:22:14;;;;;;;44.70;15.20;;;-1.90;99.90;;;;;;5045429;28;20454;-61
2023/01/30 04:24:40;;;;;;;48.65;16.17;;;-1.90;99.90;;;;;;5064029;28;20032;-63
2023/01/30 04:27:06;;;;;;;46.83;15.45;;;-1.90;99.90;;;;;;5051451;28;20136;-61
2023/01/30 04:29:31;;;;;;;44.45;14.52;;;-1.90;99.90;;;;;;5030257;28;20029;-63
2023/01/30 04:31:57;;;;;;;37.33;14.40;;;-1.90;99.90;;;;;;5041274;28;20036;-64
2023/01/30 04:34:22;;;;;;;39.85;13.73;;;-1.80;99.90;;;;;;5057936;28;20033;-62
2023/01/30 04:36:48;;;;;;;41.53;14.75;;;-1.80;99.90;;;;;;5044163;28;20028;-63
2023/01/30 04:39:14;;;;;;;35.13;12.48;;;-1.80;99.90;;;;;;5050011;28;20100;-63
2023/01/30 04:41:39;;;;;;;35.03;12.23;;;-1.70;99.90;;;;;;5048699;28;20093;-64
2023/01/30 04:44:05;;;;;;;40.80;12.98;;;-1.70;99.90;;;;;;5047102;28;20056;-63
2023/01/30 04:46:31;;;;;;;41.42;13.82;;;-1.60;99.90;;;;;;5049126;28;20585;-63
2023/01/30 04:48:56;;;;;;;41.72;13.10;;;-1.60;99.90;;;;;;5047617;28;20032;-63
2023/01/30 04:51:22;;;;;;;40.53;14.05;;;-1.60;99.90;;;;;;5048432;28;20051;-63
2023/01/30 04:53:47;;;;;;;40.97;13.32;;;-1.60;99.90;;;;;;5048159;28;20033;-63
2023/01/30 04:56:13;;;;;;;35.30;12.68;;;-1.60;99.90;;;;;;5043901;28;20390;-61
2023/01/30 04:58:39;;;;;;;38.90;13.00;;;-1.70;99.90;;;;;;5029375;28;20041;-62
2023/01/30 05:01:28;;;;;;;34.35;12.38;;;-1.70;99.90;;;;;;5044558;28;20036;-63
2023/01/30 05:03:54;;;;;;;34.42;12.23;;;-1.60;99.90;;;;;;5048607;28;20174;-62
2023/01/30 05:06:21;;;;;;;40.28;12.98;;;-1.60;99.90;;;;;;5047152;28;20025;-62
2023/01/30 05:08:51;;;;;;;39.05;12.60;;;-1.50;99.90;;;;;;5047751;28;20040;-63
2023/01/30 05:11:17;;;;;;;36.90;13.35;;;-1.50;99.90;;;;;;5044172;28;20378;-62
2023/01/30 05:13:43;;;;;;;34.17;11.57;;;-1.50;99.90;;;;;;5029381;28;20065;-64
2023/01/30 05:16:09;;;;;;;35.30;12.68;;;-1.40;99.90;;;;;;5047662;28;20497;-62
2023/01/30 05:18:35;;;;;;;37.63;11.98;;;-1.40;99.90;;;;;;5062519;28;20032;-63
2023/01/30 05:21:06;;;;;;;30.63;10.48;;;-1.40;99.90;;;;;;5051035;28;20037;-62
2023/01/30 05:23:32;;;;;;;29.90;10.90;;;-1.20;99.90;;;;;;5047342;28;20347;-61
2023/01/30 05:25:58;;;;;;;30.10;11.38;;;-1.20;99.90;;;;;;5032281;28;20055;-64
2023/01/30 05:28:24;;;;;;;32.28;11.68;;;-1.20;99.90;;;;;;5053205;28;20044;-62
2023/01/30 05:30:50;;;;;;;28.80;10.15;;;-1.30;99.90;;;;;;5065578;28;20389;-61
2023/01/30 05:33:15;;;;;;;29.60;11.15;;;-1.30;99.90;;;;;;5069014;28;20032;-62
2023/01/30 05:35:49;;;;;;;25.77;8.65;;;-1.30;99.90;;;;;;5039611;28;20040;-62
2023/01/30 05:38:15;;;;;;;26.65;10.50;;;-1.30;99.90;;;;;;5047757;28;20025;-63
2023/01/30 05:40:40;;;;;;;28.27;9.05;;;-1.40;99.90;;;;;;5053721;28;20044;-64
2023/01/30 05:43:06;;;;;;;27.27;10.20;;;-1.40;99.90;;;;;;5045335;28;20029;-61
2023/01/30 05:45:32;;;;;;;32.35;10.52;;;-1.40;99.90;;;;;;5055637;28;20033;-62
2023/01/30 05:47:58;;;;;;;33.30;10.73;;;-1.50;99.90;;;;;;5048248;28;20025;-63
2023/01/30 05:50:23;;;;;;;29.42;10.15;;;-1.50;99.90;;;;;;5046358;28;20118;-63
2023/01/30 05:52:49;;;;;;;30.23;10.02;;;-1.50;99.90;;;;;;5043682;28;20112;-63
2023/01/30 05:55:14;;;;;;;31.08;10.93;;;-1.50;99.90;;;;;;5031494;28;20029;-63
2023/01/30 05:57:40;;;;;;;38.85;12.55;;;-1.60;99.90;;;;;;5049367;28;20037;-62
2023/01/30 06:00:06;;;;;;;30.13;10.85;;;-1.60;99.90;;;;;;5047600;28;21516;-63
2023/01/30 06:02:32;;;;;;;29.92;10.35;;;-1.60;99.90;;;;;;5047839;28;20041;-62
2023/01/30 06:04:58;;;;;;;32.08;11.13;;;-1.60;99.90;;;;;;5046623;28;20033;-63
2023/01/30 06:07:23;;;;;;;31.08;10.75;;;-1.60;99.90;;;;;;5062949;28;20039;-63
2023/01/30 06:09:49;;;;;;;33.45;11.27;;;-1.60;99.90;;;;;;5067185;28;20108;-61
2023/01/30 06:12:14;;;;;;;36.55;12.57;;;-1.50;99.90;;;;;;5050749;28;20059;-63
2023/01/30 06:14:40;;;;;;;35.17;12.10;;;-1.50;99.90;;;;;;5062743;28;20033;-63
2023/01/30 06:17:06;;;;;;;31.50;10.55;;;-1.50;99.90;;;;;;5067735;28;20020;-62
2023/01/30 06:19:31;;;;;;;30.20;10.95;;;-1.50;99.90;;;;;;5037175;28;20033;-63
2023/01/30 06:21:57;;;;;;;32.35;10.82;;;-1.50;99.90;;;;;;5035679;28;20794;-63
2023/01/30 06:24:23;;;;;;;35.65;12.02;;;-1.60;99.90;;;;;;5046944;28;20033;-63
2023/01/30 06:26:48;;;;;;;29.17;10.63;;;-1.50;99.90;;;;;;5046447;28;20037;-64
2023/01/30 06:29:14;;;;;;;31.17;10.23;;;-1.40;99.90;;;;;;5054689;28;20029;-61
2023/01/30 06:31:40;;;;;;;29.83;9.88;;;-1.40;99.90;;;;;;5042637;28;20457;-63
2023/01/30 06:34:05;;;;;;;32.63;11.25;;;-1.40;99.90;;;;;;5060069;28;20056;-63
2023/01/30 06:36:31;;;;;;;31.85;10.70;;;-1.30;99.90;;;;;;5072142;28;20086;-61
2023/01/30 06:38:57;;;;;;;28.08;9.27;;;-1.30;99.90;;;;;;5060272;28;20386;-61
2023/01/30 06:41:23;;;;;;;33.45;11.07;;;-1.30;99.90;;;;;;5049261;28;20045;-63
2023/01/30 06:43:48;;;;;;;32.20;11.20;;;-1.20;99.90;;;;;;5058383;28;20562;-64
2023/01/30 06:46:14;;;;;;;29.73;10.30;;;-1.30;99.90;;;;;;5061901;28;20032;-63
2023/01/30 06:48:39;;;;;;;26.98;8.98;;;-1.20;99.90;;;;;;5063768;28;20113;-63
2023/01/30 06:51:05;;;;;;;29.42;9.43;;;-1.20;99.90;;;;;;5049057;28;20524;-61
2023/01/30 06:53:31;;;;;;;27.27;10.07;;;-1.20;99.90;;;;;;5051598;28;20045;-62
2023/01/30 06:56:00;;;;;;;28.15;10.50;;;-1.20;99.90;;;;;;5053558;28;20028;-62
2023/01/30 06:58:26;;;;;;;31.13;10.23;;;-1.20;99.90;;;;;;5063095;28;20028;-63
2023/01/30 07:00:52;;;;;;;33.35;10.80;;;-1.10;99.90;;;;;;5053325;28;20049;-63
2023/01/30 07:03:18;;;;;;;35.35;11.40;;;-1.10;99.90;;;;;;5055926;28;20040;-63
2023/01/30 07:05:45;;;;;;;26.00;9.52;;;-1.10;99.90;;;;;;5051732;28;20033;-62
2023/01/30 07:08:11;;;;;;;30.88;10.38;;;-1.10;99.90;;;;;;5050832;28;20040;-62
2023/01/30 07:10:37;;;;;;;28.52;10.38;;;-1.00;99.90;;;;;;5053474;28;20095;-63
2023/01/30 07:13:03;;;;;;;28.60;10.23;;;-1.00;99.90;;;;;;5047366;28;20680;-63
2023/01/30 07:15:30;;;;;;;33.03;9.20;;;-1.00;99.90;;;;;;5050719;28;20466;-63
2023/01/30 07:17:55;;;;;;;29.83;10.60;;;-0.90;99.90;;;;;;5050763;28;20039;-62
2023/01/30 07:20:21;;;;;;;26.13;8.98;;;-0.90;99.90;;;;;;5053286;28;20481;-62
2023/01/30 07:22:51;;;;;;;23.92;8.25;;;-0.80;99.90;;;;;;5051531;28;20025;-63
2023/01/30 07:25:18;;;;;;;32.07;9.40;;;-0.80;99.90;;;;;;5043700;28;20032;-62
2023/01/30 07:27:53;;;;;;;24.45;8.02;;;-0.70;99.90;;;;;;5049985;28;20307;-63
2023/01/30 07:30:19;;;;;;;22.58;8.15;;;-0.70;99.90;;;;;;5038818;28;20049;-63
2023/01/30 07:32:49;;;;;;;19.52;7.30;;;-0.70;99.90;;;;;;5039830;28;20110;-62
2023/01/30 07:35:14;;;;;;;23.20;8.02;;;-0.60;99.90;;;;;;5046432;28;20029;-63
2023/01/30 07:37:40;;;;;;;28.05;9.70;;;-0.70;99.90;;;;;;5047577;28;20555;-62
2023/01/30 07:40:07;;;;;;;21.38;7.32;;;-0.60;99.90;;;;;;5049369;28;20048;-64
2023/01/30 07:42:33;;;;;;;28.38;9.75;;;-0.60;99.90;;;;;;5050044;28;20037;-62
2023/01/30 07:44:59;;;;;;;26.17;8.80;;;-0.60;99.90;;;;;;5040637;28;20043;-62
2023/01/30 07:47:24;;;;;;;27.23;9.80;;;-0.60;99.90;;;;;;5043588;28;20032;-63
2023/01/30 07:49:50;;;;;;;23.67;8.85;;;-0.50;99.90;;;;;;5044260;28;20033;-64
2023/01/30 07:52:15;;;;;;;22.17;8.20;;;-0.50;99.90;;;;;;5035592;28;20068;-63
2023/01/30 07:54:41;;;;;;;25.48;8.25;;;-0.40;99.90;;;;;;5037331;28;20068;-63
2023/01/30 07:57:07;;;;;;;21.65;7.95;;;-0.40;99.90;;;;;;5067776;28;20025;-63
2023/01/30 07:59:32;;;;;;;16.67;6.57;;;-0.30;99.90;;;;;;5050316;28;20039;-60
2023/01/30 08:01:58;;;;;;;21.02;7.35;;;-0.30;99.90;;;;;;5049589;28;20468;-61
2023/01/30 08:04:24;;;;;;;19.60;6.63;;;-0.30;99.90;;;;;;5048240;28;20025;-63
2023/01/30 08:06:50;;;;;;;19.55;7.35;;;-0.20;99.90;;;;;;5048178;28;20025;-62
2023/01/30 08:09:15;;;;;;;20.65;7.47;;;-0.10;99.90;;;;;;5048155;28;20040;-64
2023/01/30 08:11:41;;;;;;;13.68;6.05;;;-0.10;99.90;;;;;;5046164;28;20048;-62
2023/01/30 08:14:07;;;;;;;22.08;7.15;;;0.00;99.90;;;;;;5046394;28;20064;-62
2023/01/30 08:16:32;;;;;;;19.00;7.15;;;0.00;99.90;;;;;;5068048;28;20046;-62
2023/01/30 08:18:58;;;;;;;19.05;7.30;;;0.10;99.90;;;;;;5059081;28;20102;-63
2023/01/30 08:21:24;;;;;;;16.85;6.50;;;0.10;99.90;;;;;;5070462;28;20060;-63
2023/01/30 08:23:50;;;;;;;17.88;6.55;;;0.10;99.90;;;;;;5041105;28;20044;-62
2023/01/30 08:26:15;;;;;;;18.73;6.95;;;0.10;99.90;;;;;;5050036;28;20762;-63
2023/01/30 08:28:41;;;;;;;19.33;7.15;;;0.20;99.90;;;;;;5051998;28;20394;-63
2023/01/30 08:31:15;;;;;;;19.33;6.65;;;0.20;99.90;;;;;;5047736;28;20079;-63
2023/01/30 08:33:41;;;;;;;19.13;6.57;;;0.20;99.90;;;;;;5050467;28;20064;-63
2023/01/30 08:36:07;;;;;;;14.15;5.10;;;0.10;99.90;;;;;;5049207;28;20067;-62
2023/01/30 08:38:32;;;;;;;17.35;6.20;;;0.10;99.90;;;;;;5038566;28;20068;-63
2023/01/30 08:40:59;;;;;;;16.95;6.22;;;0.00;99.90;;;;;;5029172;28;20049;-62
2023/01/30 08:43:25;;;;;;;20.75;6.45;;;-0.10;99.90;;;;;;5050360;28;20037;-65
2023/01/30 08:45:55;;;;;;;19.38;6.05;;;-0.10;99.90;;;;;;5060496;28;20054;-64
2023/01/30 08:48:21;;;;;;;16.80;6.57;;;-0.10;99.90;;;;;;5047471;28;20103;-64
2023/01/30 08:50:47;;;;;;;19.25;6.82;;;-0.10;99.90;;;;;;5061254;28;20381;-62
2023/01/30 08:53:12;;;;;;;17.70;6.20;;;-0.10;99.90;;;;;;5058436;28;20085;-64
2023/01/30 08:55:38;;;;;;;18.50;6.30;;;0.00;99.90;;;;;;5044492;28;20397;-63
2023/01/30 08:58:03;;;;;;;18.92;5.88;;;-0.10;99.90;;;;;;5038578;28;20501;-63
2023/01/30 09:00:29;;;;;;;18.00;6.07;;;-0.10;99.90;;;;;;5047527;28;20124;-64
2023/01/30 09:02:56;;;;;;;17.23;6.13;;;0.00;99.90;;;;;;5027556;28;20047;-62
2023/01/30 09:05:22;;;;;;;15.93;5.88;;;0.00;99.90;;;;;;5045556;28;20478;-63
2023/01/30 09:07:49;;;;;;;20.23;5.55;;;0.00;99.90;;;;;;5050344;28;20052;-63
2023/01/30 09:10:15;;;;;;;20.17;6.68;;;0.10;99.90;;;;;;5056408;28;20103;-64
2023/01/30 09:12:40;;;;;;;18.77;7.63;;;0.00;99.90;;;;;;5046229;28;20474;-63
2023/01/30 09:15:07;;;;;;;22.50;7.93;;;0.00;99.90;;;;;;5046950;28;20028;-62
2023/01/30 09:17:32;;;;;;;19.75;6.75;;;0.00;99.90;;;;;;5052847;28;20047;-63
2023/01/30 09:19:58;;;;;;;18.80;6.78;;;0.00;99.90;;;;;;5041930;28;20021;-64
2023/01/30 09:22:24;;;;;;;18.50;6.45;;;0.00;99.90;;;;;;5046890;28;20041;-63
2023/01/30 09:24:49;;;;;;;14.38;5.90;;;0.00;99.90;;;;;;5048872;28;20039;-62
2023/01/30 09:27:15;;;;;;;17.85;6.38;;;-0.10;99.90;;;;;;5036731;28;20057;-63
2023/01/30 09:29:41;;;;;;;17.63;6.43;;;-0.10;99.90;;;;;;5058101;28;20036;-63
2023/01/30 09:32:06;;;;;;;21.90;7.05;;;-0.10;99.90;;;;;;5040927;28;20048;-62
2023/01/30 09:34:33;;;;;;;20.92;7.55;;;-0.10;99.90;;;;;;5046431;28;20636;-64
2023/01/30 09:37:00;;;;;;;24.25;8.13;;;0.00;99.90;;;;;;5047211;28;20021;-63
2023/01/30 09:39:26;;;;;;;21.85;7.45;;;0.00;99.90;;;;;;5043227;28;20076;-62
2023/01/30 09:42:04;;;;;;;20.20;7.05;;;0.00;99.90;;;;;;5053244;28;20032;-64
2023/01/30 09:44:41;;;;;;;21.40;6.43;;;0.10;99.90;;;;;;5048037;28;20033;-63
2023/01/30 09:47:11;;;;;;;25.85;8.52;;;0.10;99.90;;;;;;5050128;28;20385;-63
2023/01/30 09:49:53;;;;;;;18.25;7.15;;;0.30;99.90;;;;;;5044957;28;20048;-63
2023/01/30 09:52:27;;;;;;;18.92;6.05;;;0.40;99.90;;;;;;5047679;28;20033;-64
2023/01/30 09:55:17;;;;;;;16.25;6.05;;;0.50;99.90;;;;;;5048693;28;20090;-64
2023/01/30 09:57:45;;;;;;;15.95;5.88;;;0.60;99.90;;;;;;5028126;28;20054;-64
2023/01/30 10:00:38;;;;;;;12.40;4.47;;;0.70;99.90;;;;;;5027723;28;20136;-64
2023/01/30 10:03:17;;;;;;;17.42;6.20;;;0.80;99.90;;;;;;5027872;28;20433;-64
2023/01/30 10:05:53;;;;;;;14.73;3.97;;;0.80;99.90;;;;;;5028032;28;20032;-64
2023/01/30 10:08:39;;;;;;;17.90;5.82;;;0.80;99.90;;;;;;5027575;28;20307;-64
2023/01/30 10:11:08;;;;;;;13.90;5.38;;;0.90;99.90;;;;;;5037238;28;20512;-63
2023/01/30 10:13:57;;;;;;;11.45;4.30;;;0.90;99.90;;;;;;5047124;28;20048;-64
2023/01/30 10:16:42;;;;;;;13.97;4.73;;;0.90;99.90;;;;;;5048435;28;20029;-64
2023/01/30 10:19:22;;;;;;;11.27;4.20;;;0.90;99.90;;;;;;5047305;28;20377;-63
2023/01/30 10:21:53;;;;;;;14.15;4.47;;;0.90;99.90;;;;;;5048434;28;20082;-64
2023/01/30 10:24:44;;;;;;;14.73;5.10;;;0.90;99.90;;;;;;5047598;28;20036;-64
2023/01/30 10:27:14;;;;;;;13.88;4.53;;;0.80;99.90;;;;;;5046950;28;20401;-64
2023/01/30 10:29:46;;;;;;;14.40;6.07;;;0.80;99.90;;;;;;5044873;28;20037;-64
2023/01/30 10:32:18;;;;;;;18.27;5.45;;;0.80;99.90;;;;;;5047619;28;20044;-64
2023/01/30 10:34:50;;;;;;;13.23;4.38;;;0.80;99.90;;;;;;5046979;28;20460;-63
2023/01/30 10:37:29;;;;;;;15.30;5.60;;;0.80;99.90;;;;;;5047543;28;20036;-63
2023/01/30 10:40:09;;;;;;;14.23;4.90;;;0.70;99.90;;;;;;5048227;28;20029;-63
2023/01/30 10:43:01;;;;;;;16.15;6.43;;;0.80;99.90;;;;;;5048296;28;20029;-64
2023/01/30 10:46:04;;;;;;;13.45;5.47;;;0.80;99.90;;;;;;5046888;28;20421;-65
2023/01/30 10:48:44;;;;;;;12.48;5.03;;;0.80;99.90;;;;;;5046971;28;20048;-64
2023/01/30 10:51:27;;;;;;;13.55;5.28;;;0.80;99.90;;;;;;5047055;28;20037;-64
2023/01/30 10:54:07;;;;;;;22.90;6.13;;;0.80;99.90;;;;;;5048221;28;20068;-64
2023/01/30 10:56:43;;;;;;;13.85;5.43;;;0.80;99.90;;;;;;5048082;28;20055;-64
2023/01/30 10:59:26;;;;;;;19.45;6.88;;;0.80;99.90;;;;;;5045486;28;20052;-64
2023/01/30 11:01:58;;;;;;;16.13;5.88;;;0.90;99.90;;;;;;5047128;28;20083;-62
2023/01/30 11:04:35;;;;;;;19.85;6.38;;;0.80;99.90;;;;;;5046656;28;20048;-63
2023/01/30 11:07:01;;;;;;;17.85;6.15;;;0.90;99.90;;;;;;5047565;28;20051;-64
2023/01/30 11:09:38;;;;;;;16.48;6.13;;;0.80;99.90;;;;;;5047891;28;20132;-63
2023/01/30 11:12:04;;;;;;;16.45;6.22;;;0.90;99.90;;;;;;5047097;28;20025;-63
2023/01/30 11:14:52;;;;;;;17.65;5.88;;;0.80;99.90;;;;;;5048218;28;20029;-63
2023/01/30 11:17:20;;;;;;;21.08;7.18;;;0.90;99.90;;;;;;5048873;28;20387;-63
2023/01/30 11:19:56;;;;;;;17.40;6.50;;;0.90;99.90;;;;;;5050469;28;20037;-63
2023/01/30 11:22:27;;;;;;;18.42;6.82;;;0.90;99.90;;;;;;5050800;28;20025;-62
2023/01/30 11:25:04;;;;;;;;;;;1.00;99.90;;;;;;5051924;28;20499;-62
2023/01/30 11:27:32;;;;;;;18.95;5.75;;;1.00;99.90;;;;;;5050891;28;19916;-63
2023/01/30 11:30:14;;;;;;;14.73;6.07;;;1.00;99.90;;;;;;5050426;28;20037;-64
2023/01/30 11:32:42;;;;;;;19.08;7.07;;;1.00;99.90;;;;;;5031474;28;20114;-63
2023/01/30 11:35:07;;;;;;;16.88;6.60;;;1.00;99.90;;;;;;5030561;28;20084;-64
2023/01/30 11:37:40;;;;;;;20.67;7.57;;;1.00;99.90;;;;;;5031134;28;20030;-64
2023/01/30 11:40:22;;;;;;;14.93;6.10;;;1.00;99.90;;;;;;5030440;28;20036;-64
2023/01/30 11:42:50;;;;;;;16.15;5.82;;;1.00;99.90;;;;;;5031291;28;20033;-63
2023/01/30 11:45:24;;;;;;;18.80;7.30;;;1.00;99.90;;;;;;5034701;28;20033;-64
2023/01/30 11:47:53;;;;;;;20.20;7.65;;;1.00;99.90;;;;;;5050288;28;20416;-63
2023/01/30 11:50:20;;;;;;;21.77;7.43;;;1.00;99.90;;;;;;5049673;28;20056;-63
2023/01/30 11:52:47;;;;;;;21.90;6.90;;;0.90;99.90;;;;;;5050956;28;20056;-64
2023/01/30 11:55:15;;;;;;;20.45;7.38;;;0.90;99.90;;;;;;5048807;28;20351;-64
2023/01/30 11:57:53;;;;;;;19.05;6.85;;;1.00;99.90;;;;;;5050393;28;20500;-63
2023/01/30 12:00:37;;;;;;;19.42;6.72;;;0.90;99.90;;;;;;5048994;28;20409;-63
2023/01/30 12:03:08;;;;;;;21.88;7.40;;;1.00;99.90;;;;;;5050458;28;20029;-63
2023/01/30 12:05:41;;;;;;;17.38;6.60;;;0.90;99.90;;;;;;5050809;28;20021;-62
2023/01/30 12:08:25;;;;;;;20.25;7.75;;;0.90;99.90;;;;;;5049772;28;20075;-64
2023/01/30 12:10:58;;;;;;;18.00;6.53;;;0.90;99.90;;;;;;5050534;28;20485;-63
2023/01/30 12:13:33;;;;;;;19.88;6.95;;;1.00;99.90;;;;;;5048843;28;20041;-62
2023/01/30 12:16:13;;;;;;;24.35;6.93;;;0.90;99.90;;;;;;5050592;28;20044;-63
2023/01/30 12:19:05;;;;;;;17.83;6.85;;;1.00;99.90;;;;;;5050510;28;20056;-64
2023/01/30 12:21:53;;;;;;;21.63;7.85;;;0.90;99.90;;;;;;5049512;28;20053;-63
2023/01/30 12:24:33;;;;;;;19.95;6.95;;;1.00;99.90;;;;;;5049596;28;20036;-63
2023/01/30 12:27:33;;;;;;;15.15;5.28;;;1.00;99.90;;;;;;5050252;28;20029;-63
2023/01/30 12:30:02;;;;;;;;;;;1.00;99.90;;;;;;5027360;28;20081;-64
2023/01/30 12:32:32;;;;;;;16.42;5.80;;;1.00;99.90;;;;;;5029133;28;20363;-63
2023/01/30 12:34:58;;;;;;;15.10;6.03;;;0.90;99.90;;;;;;5030505;28;20036;-63
2023/01/30 12:37:33;;;;;;;18.40;6.55;;;1.00;99.90;;;;;;5041146;28;20040;-64
2023/01/30 12:40:27;;;;;;;15.45;6.13;;;1.00;99.90;;;;;;5049938;28;20021;-64
2023/01/30 12:42:58;;;;;;;19.25;6.85;;;1.00;99.90;;;;;;5050104;28;20052;-64
2023/01/30 12:45:27;;;;;;;18.00;6.80;;;1.10;99.90;;;;;;5049221;28;20071;-64
2023/01/30 12:48:17;;;;;;;15.98;5.38;;;1.00;99.90;;;;;;5049935;28;20037;-62
2023/01/30 12:51:01;;;;;;;16.77;5.97;;;1.10;99.90;;;;;;5048303;28;20045;-64
2023/01/30 12:53:32;;;;;;;15.27;5.15;;;1.10;99.90;;;;;;5048743;28;20025;-64
2023/01/30 12:56:07;;;;;;;16.10;5.55;;;1.10;99.90;;;;;;5029815;28;20056;-64
2023/01/30 12:58:42;;;;;;;16.85;5.22;;;1.10;99.90;;;;;;5029577;28;20107;-64